Terminal Aerodrome Forecast
Issued by NWS Shreveport, LA

Home | Current Version | Previous Version | Text Only | Print | Product List | Glossary On
Versions: 1 2 3 4 5 6 7 8 9 10 11 12 13 14 15 16 17 18 19 20
987
FTUS44 KSHV 022338
TAFLFK
TAF
KLFK 022338Z 0300/0324 32004KT P6SM VCSH BKN035
      TEMPO 0300/0303 6SM -RA BR BKN035
     FM030300 34004KT P6SM SCT035 OVC080
     FM030600 35004KT P6SM OVC080
     FM031200 35005KT P6SM SCT080 BKN100
     FM031400 36007KT P6SM SCT100
     FM031800 34009KT P6SM SKC=

USA.gov is the U.S. government's official web portal to all federal, state and local government web resources and services.